Time;durP1;ratioP1;P1;durP2;ratioP2;P2;SDS_P1;SDS_P2;PMS_P1;PMS_P2;Temp;Humidity;BMP_temperature;BMP_pressure;BME280_temperature;BME280_humidity;BME280_pressure;Samples;Min_cycle;Max_cycle;Signal;HPM_P1;HPM_P2
2023/10/08 00:03:29;;;;;;;3.83;1.13;;;;;;;;;;6199485;22;20344;-90
2023/10/08 00:05:55;;;;;;;4.35;1.00;;;;;;;;;;6223823;22;20101;-90
2023/10/08 00:08:21;;;;;;;3.88;1.27;;;;;;;;;;6224068;22;20037;-90
2023/10/08 00:10:54;;;;;;;2.92;1.20;;;;;;;;;;6249055;22;20089;-90
2023/10/08 00:13:20;;;;;;;2.03;1.00;;;;;;;;;;6224434;22;20016;-90
2023/10/08 00:15:52;;;;;;;3.30;0.93;;;;;;;;;;6223882;22;20012;-91
2023/10/08 00:18:22;;;;;;;1.55;0.80;;;;;;;;;;6224425;22;20019;-90
2023/10/08 00:20:58;;;;;;;1.40;1.00;;;;;;;;;;6225105;22;20026;-91
2023/10/08 00:23:27;;;;;;;1.77;1.02;;;;;;;;;;6226539;22;20012;-90
2023/10/08 00:25:54;;;;;;;2.35;1.02;;;;;;;;;;6225925;22;20069;-91
2023/10/08 00:28:21;;;;;;;1.17;0.93;;;;;;;;;;6226834;22;20022;-90
2023/10/08 00:30:50;;;;;;;3.38;1.50;;;;;;;;;;6226108;22;20022;-90
2023/10/08 00:33:16;;;;;;;3.50;1.20;;;;;;;;;;6225985;22;20011;-91
2023/10/08 00:35:43;;;;;;;3.42;1.05;;;;;;;;;;6225948;22;20012;-91
2023/10/08 00:38:20;;;;;;;1.77;1.05;;;;;;;;;;6226069;22;20020;-91
2023/10/08 00:40:50;;;;;;;3.67;1.30;;;;;;;;;;6225816;22;20011;-91
2023/10/08 00:43:35;;;;;;;1.42;1.20;;;;;;;;;;6226691;22;20332;-91
2023/10/08 00:46:10;;;;;;;5.00;1.43;;;;;;;;;;6225898;22;20016;-91
2023/10/08 00:48:37;;;;;;;5.17;1.40;;;;;;;;;;6226655;22;20065;-91
2023/10/08 00:53:52;;;;;;;2.30;1.10;;;;;;;;;;6251557;22;20043;-91
2023/10/08 00:56:25;;;;;;;2.75;1.20;;;;;;;;;;6225819;22;20011;-91
2023/10/08 00:58:53;;;;;;;3.10;1.20;;;;;;;;;;6225644;22;20015;-91
2023/10/08 01:01:23;;;;;;;4.28;1.40;;;;;;;;;;6226744;22;20098;-91
2023/10/08 01:03:49;;;;;;;3.30;1.20;;;;;;;;;;6225820;22;20019;-91
2023/10/08 01:06:18;;;;;;;2.95;1.15;;;;;;;;;;6226120;22;20023;-92
2023/10/08 01:08:52;;;;;;;3.25;1.30;;;;;;;;;;6225863;22;20027;-91
2023/10/08 01:11:21;;;;;;;4.40;1.50;;;;;;;;;;6226245;22;20026;-91
2023/10/08 01:13:47;;;;;;;2.45;1.30;;;;;;;;;;6225887;22;20019;-90
2023/10/08 01:16:14;;;;;;;2.42;1.48;;;;;;;;;;6225636;22;20020;-91
2023/10/08 01:18:43;;;;;;;5.55;1.60;;;;;;;;;;6225696;22;20019;-91
2023/10/08 01:21:26;;;;;;;4.70;1.42;;;;;;;;;;6225717;22;20055;-91
2023/10/08 01:23:54;;;;;;;4.70;1.60;;;;;;;;;;6226459;22;20019;-91
2023/10/08 01:26:22;;;;;;;3.05;1.73;;;;;;;;;;6225167;22;20020;-91
2023/10/08 01:28:49;;;;;;;3.20;1.70;;;;;;;;;;6226919;22;20061;-91
2023/10/08 01:31:15;;;;;;;4.80;1.58;;;;;;;;;;6234178;22;20020;-91
2023/10/08 01:33:50;;;;;;;2.05;1.52;;;;;;;;;;6232131;22;20047;-91
2023/10/08 01:36:16;;;;;;;3.03;1.92;;;;;;;;;;6227096;22;20012;-91
2023/10/08 01:38:42;;;;;;;4.63;1.70;;;;;;;;;;6226843;22;20012;-91
2023/10/08 01:41:21;;;;;;;3.67;1.80;;;;;;;;;;6225339;22;20023;-91
2023/10/08 01:43:52;;;;;;;4.80;2.20;;;;;;;;;;6251390;22;20306;-91
2023/10/08 01:46:21;;;;;;;4.10;1.73;;;;;;;;;;6225559;22;20160;-90
2023/10/08 01:48:53;;;;;;;6.43;1.92;;;;;;;;;;6225386;22;20016;-90
2023/10/08 01:51:28;;;;;;;3.00;1.90;;;;;;;;;;6225390;22;20097;-90
2023/10/08 01:53:58;;;;;;;4.10;2.00;;;;;;;;;;6225440;22;20428;-90
2023/10/08 01:56:25;;;;;;;3.70;1.90;;;;;;;;;;6225569;22;20012;-91
2023/10/08 01:58:51;;;;;;;5.82;2.15;;;;;;;;;;6225121;22;20344;-91
2023/10/08 02:01:23;;;;;;;5.40;1.85;;;;;;;;;;6224686;22;20016;-91
2023/10/08 02:03:49;;;;;;;17.98;2.63;;;;;;;;;;6225368;22;20357;-90
2023/10/08 02:06:15;;;;;;;4.07;1.98;;;;;;;;;;6224910;22;20012;-90
2023/10/08 02:08:41;;;;;;;6.43;2.47;;;;;;;;;;6225463;22;20073;-90
2023/10/08 02:11:08;;;;;;;6.03;2.20;;;;;;;;;;6224950;22;20011;-90
2023/10/08 02:13:34;;;;;;;6.20;2.03;;;;;;;;;;6225136;22;20015;-90
2023/10/08 02:16:01;;;;;;;9.07;2.22;;;;;;;;;;6224924;22;20099;-90
2023/10/08 02:18:30;;;;;;;4.00;2.20;;;;;;;;;;6224838;22;20331;-90
2023/10/08 02:20:58;;;;;;;6.03;2.10;;;;;;;;;;6224536;22;20015;-90
2023/10/08 02:23:24;;;;;;;6.78;1.92;;;;;;;;;;6250046;22;20026;-90
2023/10/08 02:25:50;;;;;;;5.20;2.10;;;;;;;;;;6224679;22;20026;-90
2023/10/08 02:28:20;;;;;;;8.80;2.33;;;;;;;;;;6224524;22;20027;-90
2023/10/08 02:30:46;;;;;;;5.40;2.00;;;;;;;;;;6250070;22;20020;-90
2023/10/08 02:33:15;;;;;;;5.30;2.28;;;;;;;;;;6225561;22;20011;-89
2023/10/08 02:35:45;;;;;;;5.15;1.85;;;;;;;;;;6224513;22;20090;-90
2023/10/08 02:38:37;;;;;;;6.78;1.90;;;;;;;;;;6224553;22;20383;-89
2023/10/08 02:41:06;;;;;;;6.55;1.95;;;;;;;;;;6248745;22;20026;-90
2023/10/08 02:43:34;;;;;;;6.40;2.35;;;;;;;;;;6225065;22;20019;-89
2023/10/08 02:46:00;;;;;;;5.53;2.00;;;;;;;;;;6224399;22;20455;-90
2023/10/08 02:48:27;;;;;;;9.35;2.25;;;;;;;;;;6224618;22;20016;-90
2023/10/08 02:50:54;;;;;;;4.90;1.80;;;;;;;;;;6224434;22;20388;-90
2023/10/08 02:53:25;;;;;;;7.07;2.47;;;;;;;;;;6224412;22;20027;-90
2023/10/08 02:55:52;;;;;;;5.32;2.17;;;;;;;;;;6224249;22;20462;-90
2023/10/08 02:58:20;;;;;;;4.85;2.00;;;;;;;;;;6224064;22;20020;-90
2023/10/08 03:00:47;;;;;;;6.22;2.10;;;;;;;;;;6224095;22;20012;-90
2023/10/08 03:03:18;;;;;;;6.20;1.80;;;;;;;;;;6225985;22;20011;-90
2023/10/08 03:05:49;;;;;;;5.07;2.10;;;;;;;;;;6224737;22;20019;-90
2023/10/08 03:08:20;;;;;;;5.10;1.80;;;;;;;;;;6225337;22;20421;-90
2023/10/08 03:10:50;;;;;;;4.43;2.10;;;;;;;;;;6224725;22;20065;-90
2023/10/08 03:13:17;;;;;;;3.30;1.80;;;;;;;;;;6228166;22;20332;-90
2023/10/08 03:15:57;;;;;;;3.70;1.83;;;;;;;;;;6225760;22;20043;-90
2023/10/08 03:18:24;;;;;;;5.95;1.95;;;;;;;;;;6224839;22;20467;-90
2023/10/08 03:20:50;;;;;;;6.65;2.25;;;;;;;;;;6223916;22;20333;-90
2023/10/08 03:23:23;;;;;;;6.57;2.30;;;;;;;;;;6224518;22;20406;-90
2023/10/08 03:26:00;;;;;;;8.15;2.70;;;;;;;;;;6224959;22;20027;-91
2023/10/08 03:28:27;;;;;;;5.78;2.08;;;;;;;;;;6225486;22;20016;-91
2023/10/08 03:31:03;;;;;;;7.75;2.58;;;;;;;;;;6224296;22;20054;-91
2023/10/08 03:33:34;;;;;;;5.20;2.33;;;;;;;;;;6224537;22;20127;-90
2023/10/08 03:36:04;;;;;;;5.57;2.20;;;;;;;;;;6223769;22;20161;-90
2023/10/08 03:38:44;;;;;;;9.07;2.72;;;;;;;;;;6224283;22;20015;-91
2023/10/08 03:41:16;;;;;;;9.98;2.90;;;;;;;;;;6223854;22;20109;-90
2023/10/08 03:43:53;;;;;;;6.63;2.40;;;;;;;;;;6224975;22;20011;-90
2023/10/08 03:46:24;;;;;;;6.30;2.40;;;;;;;;;;6224375;22;20339;-91
2023/10/08 03:48:56;;;;;;;16.10;3.20;;;;;;;;;;6225083;22;20417;-90
2023/10/08 03:51:27;;;;;;;6.18;2.60;;;;;;;;;;6224103;22;20019;-91
2023/10/08 03:54:01;;;;;;;7.00;2.25;;;;;;;;;;6224389;22;20044;-90
2023/10/08 03:56:31;;;;;;;5.75;2.00;;;;;;;;;;6224582;22;20033;-90
2023/10/08 03:59:03;;;;;;;8.88;2.05;;;;;;;;;;6224358;22;20018;-90
2023/10/08 04:01:32;;;;;;;6.22;2.17;;;;;;;;;;6224678;22;20019;-90
2023/10/08 04:04:00;;;;;;;6.43;2.20;;;;;;;;;;6223927;22;20165;-90
2023/10/08 04:14:16;;;;;;;6.40;2.88;;;;;;;;;;6249545;22;20058;-91
2023/10/08 04:16:42;;;;;;;8.50;2.15;;;;;;;;;;6225022;22;20365;-90
2023/10/08 04:19:09;;;;;;;8.13;2.40;;;;;;;;;;6224905;22;20018;-91
2023/10/08 04:21:35;;;;;;;8.20;2.30;;;;;;;;;;6223908;22;20465;-91
2023/10/08 04:24:05;;;;;;;6.20;2.35;;;;;;;;;;6224166;22;20012;-91
2023/10/08 04:26:32;;;;;;;8.40;2.53;;;;;;;;;;6224147;22;20027;-91
2023/10/08 04:29:06;;;;;;;4.72;2.13;;;;;;;;;;6224143;22;20011;-91
2023/10/08 04:31:43;;;;;;;7.18;2.33;;;;;;;;;;6224205;22;20327;-91
2023/10/08 04:34:15;;;;;;;6.10;2.30;;;;;;;;;;6225032;22;20023;-90
2023/10/08 04:36:54;;;;;;;5.90;1.80;;;;;;;;;;6225794;22;20058;-90
2023/10/08 04:39:23;;;;;;;5.15;2.20;;;;;;;;;;6224524;22;20030;-91
2023/10/08 04:41:54;;;;;;;7.22;1.95;;;;;;;;;;6224488;22;20015;-91
2023/10/08 04:44:21;;;;;;;9.25;2.38;;;;;;;;;;6226049;22;20024;-91
2023/10/08 04:46:51;;;;;;;6.25;2.05;;;;;;;;;;6225437;22;20019;-91
2023/10/08 04:49:30;;;;;;;6.85;2.20;;;;;;;;;;6223726;22;20091;-91
2023/10/08 04:51:57;;;;;;;6.85;2.40;;;;;;;;;;6224661;22;20011;-91
2023/10/08 04:54:24;;;;;;;9.02;2.22;;;;;;;;;;6229854;22;20019;-91
2023/10/08 04:56:52;;;;;;;5.82;2.13;;;;;;;;;;6235387;22;20027;-90
2023/10/08 04:59:22;;;;;;;5.32;2.95;;;;;;;;;;6231498;22;20019;-90
2023/10/08 05:01:48;;;;;;;8.27;2.10;;;;;;;;;;6226472;22;20020;-91
2023/10/08 05:04:23;;;;;;;7.78;2.05;;;;;;;;;;6225357;22;20019;-91
2023/10/08 05:22:18;;;;;;;4.75;1.73;;;;;;;;;;6250277;22;20020;-90
2023/10/08 05:49:26;;;;;;;8.70;2.30;;;;;;;;;;6251406;22;20099;-90
2023/10/08 06:02:29;;;;;;;7.80;2.35;;;;;;;;;;6278300;22;20015;-86
2023/10/08 06:07:48;;;;;;;7.90;2.28;;;;;;;;;;6249909;22;20062;-88
2023/10/08 06:11:07;;;;;;;7.18;2.28;;;;;;;;;;6224462;22;20012;-88
2023/10/08 06:13:04;;;;;;;5.47;1.90;;;;;;;;;;6233653;22;20073;-89
2023/10/08 06:15:48;;;;;;;7.55;2.20;;;;;;;;;;6224754;22;20034;-88
2023/10/08 06:18:25;;;;;;;6.95;2.30;;;;;;;;;;6250038;22;20061;-88
2023/10/08 06:20:55;;;;;;;5.55;2.10;;;;;;;;;;6224337;22;20049;-87
2023/10/08 06:23:23;;;;;;;6.40;2.30;;;;;;;;;;6250500;22;20142;-88
2023/10/08 06:28:43;;;;;;;4.97;2.17;;;;;;;;;;6207171;22;20058;-88
2023/10/08 06:31:16;;;;;;;4.93;2.00;;;;;;;;;;6224151;22;20314;-87
2023/10/08 06:33:43;;;;;;;8.05;2.15;;;;;;;;;;6275783;22;20026;-87
2023/10/08 06:38:38;;;;;;;8.85;2.25;;;;;;;;;;6248991;22;20016;-88
2023/10/08 06:41:08;;;;;;;5.25;2.08;;;;;;;;;;6249258;22;20092;-87
2023/10/08 06:43:38;;;;;;;6.50;2.30;;;;;;;;;;6249155;22;20500;-87
2023/10/08 06:46:07;;;;;;;5.45;2.15;;;;;;;;;;6249218;22;20087;-87
2023/10/08 06:48:34;;;;;;;9.48;2.33;;;;;;;;;;6224155;22;20015;-87
2023/10/08 06:51:13;;;;;;;4.45;2.33;;;;;;;;;;6249014;22;20097;-88
2023/10/08 06:53:42;;;;;;;7.00;2.72;;;;;;;;;;6249357;22;20046;-88
2023/10/08 06:56:12;;;;;;;4.80;2.22;;;;;;;;;;6224038;22;20026;-91
2023/10/08 06:58:53;;;;;;;5.07;2.05;;;;;;;;;;6225255;22;20372;-91
2023/10/08 07:01:24;;;;;;;8.07;2.65;;;;;;;;;;6225039;22;20016;-92
2023/10/08 07:04:03;;;;;;;7.22;2.25;;;;;;;;;;6224133;22;20023;-90
2023/10/08 07:06:33;;;;;;;7.05;2.47;;;;;;;;;;6225236;22;20090;-90
2023/10/08 07:09:06;;;;;;;5.40;2.10;;;;;;;;;;6225012;22;20019;-90
2023/10/08 07:11:39;;;;;;;9.20;2.40;;;;;;;;;;6224687;22;20015;-91
2023/10/08 07:14:05;;;;;;;6.13;2.10;;;;;;;;;;6225055;22;20011;-90
2023/10/08 07:16:32;;;;;;;8.45;2.17;;;;;;;;;;6224893;22;20019;-91
2023/10/08 07:19:04;;;;;;;4.72;1.70;;;;;;;;;;6224795;22;20015;-90
2023/10/08 07:21:44;;;;;;;4.43;2.00;;;;;;;;;;6224708;22;20099;-90
2023/10/08 07:24:15;;;;;;;6.68;2.50;;;;;;;;;;6225579;22;20451;-91
2023/10/08 07:26:46;;;;;;;6.40;2.13;;;;;;;;;;6224765;22;20020;-91
2023/10/08 07:29:16;;;;;;;5.18;2.00;;;;;;;;;;6224018;22;20031;-90
2023/10/08 07:31:47;;;;;;;5.60;2.03;;;;;;;;;;6224913;22;20019;-90
2023/10/08 07:34:25;;;;;;;6.00;2.25;;;;;;;;;;6226909;22;20023;-90
2023/10/08 07:36:52;;;;;;;6.68;2.13;;;;;;;;;;6225454;22;20466;-91
2023/10/08 07:41:58;;;;;;;8.32;2.13;;;;;;;;;;6249668;22;20391;-90
2023/10/08 07:44:31;;;;;;;7.88;2.72;;;;;;;;;;6224493;22;20031;-91
2023/10/08 07:46:57;;;;;;;5.47;2.33;;;;;;;;;;6224685;22;20011;-92
2023/10/08 07:49:30;;;;;;;7.03;2.50;;;;;;;;;;6223842;22;20011;-90
2023/10/08 07:51:58;;;;;;;6.72;2.03;;;;;;;;;;6224709;22;20014;-91
2023/10/08 07:54:27;;;;;;;7.05;2.10;;;;;;;;;;6224641;22;20478;-91
2023/10/08 07:57:08;;;;;;;6.20;2.13;;;;;;;;;;6225054;22;20400;-90
2023/10/08 07:59:38;;;;;;;6.40;2.08;;;;;;;;;;6225532;22;20019;-91
2023/10/08 08:02:09;;;;;;;8.40;2.28;;;;;;;;;;6225363;22;20018;-90
2023/10/08 08:04:36;;;;;;;4.68;2.00;;;;;;;;;;6225338;22;20098;-90
2023/10/08 08:07:04;;;;;;;6.25;2.42;;;;;;;;;;6225694;22;20012;-90
2023/10/08 08:09:30;;;;;;;6.40;2.20;;;;;;;;;;6225840;22;20401;-90
2023/10/08 08:11:57;;;;;;;8.88;2.30;;;;;;;;;;6225706;22;20015;-90
2023/10/08 08:14:28;;;;;;;9.80;2.50;;;;;;;;;;6226195;22;20026;-90
2023/10/08 08:16:54;;;;;;;6.88;2.35;;;;;;;;;;6226607;22;20020;-91
2023/10/08 08:19:24;;;;;;;6.88;2.20;;;;;;;;;;6225943;22;20107;-91
2023/10/08 08:21:52;;;;;;;4.78;2.22;;;;;;;;;;6225695;22;20518;-90
2023/10/08 08:24:35;;;;;;;8.75;2.30;;;;;;;;;;6226213;22;20020;-90
2023/10/08 08:27:08;;;;;;;7.15;2.40;;;;;;;;;;6251041;22;20070;-90
2023/10/08 08:29:44;;;;;;;7.05;2.65;;;;;;;;;;6224443;22;20016;-90
2023/10/08 08:32:15;;;;;;;10.20;2.58;;;;;;;;;;6224528;22;20016;-90
2023/10/08 08:34:44;;;;;;;7.30;2.20;;;;;;;;;;6223842;22;20020;-91
2023/10/08 08:37:12;;;;;;;9.77;2.63;;;;;;;;;;6224656;22;20019;-91
2023/10/08 08:39:38;;;;;;;4.88;2.42;;;;;;;;;;6224292;22;20467;-91
2023/10/08 08:42:05;;;;;;;8.77;2.10;;;;;;;;;;6225498;22;20015;-90
2023/10/08 08:44:45;;;;;;;3.92;1.98;;;;;;;;;;6225821;22;20026;-91
2023/10/08 08:47:18;;;;;;;9.13;2.47;;;;;;;;;;6252108;22;20067;-90
2023/10/08 08:49:48;;;;;;;6.07;2.45;;;;;;;;;;6226147;22;20023;-90
2023/10/08 08:52:14;;;;;;;6.60;2.13;;;;;;;;;;6225592;22;20424;-90
2023/10/08 08:54:42;;;;;;;9.00;2.28;;;;;;;;;;6225588;22;20066;-90
2023/10/08 08:57:13;;;;;;;6.38;2.15;;;;;;;;;;6226924;22;20015;-91
2023/10/08 08:59:41;;;;;;;7.43;2.20;;;;;;;;;;6226405;22;20020;-91
2023/10/08 09:02:09;;;;;;;10.27;2.28;;;;;;;;;;6225662;22;20348;-90
2023/10/08 09:04:37;;;;;;;5.32;2.10;;;;;;;;;;6225555;22;20012;-91
2023/10/08 09:07:04;;;;;;;5.07;2.05;;;;;;;;;;6225504;22;20023;-89
2023/10/08 09:09:33;;;;;;;7.47;2.17;;;;;;;;;;6224764;22;20517;-88
2023/10/08 09:11:59;;;;;;;6.35;2.05;;;;;;;;;;6224624;22;20094;-88
2023/10/08 09:14:26;;;;;;;6.88;2.42;;;;;;;;;;6224742;22;20170;-88
2023/10/08 09:16:56;;;;;;;9.32;2.30;;;;;;;;;;6224818;22;20055;-88
2023/10/08 09:19:24;;;;;;;4.72;2.40;;;;;;;;;;6250389;22;20054;-86
2023/10/08 09:22:00;;;;;;;5.32;2.40;;;;;;;;;;6225055;22;20286;-86
2023/10/08 09:24:26;;;;;;;6.60;2.42;;;;;;;;;;6250251;22;20020;-87
2023/10/08 09:26:56;;;;;;;11.02;2.22;;;;;;;;;;6225745;22;20023;-86
2023/10/08 09:29:26;;;;;;;7.53;2.67;;;;;;;;;;6225213;22;20027;-86
2023/10/08 09:31:59;;;;;;;6.65;2.50;;;;;;;;;;6250187;22;20016;-86
2023/10/08 09:34:29;;;;;;;6.07;2.17;;;;;;;;;;6226291;22;20336;-86
2023/10/08 09:36:56;;;;;;;6.78;2.83;;;;;;;;;;6225309;22;20019;-86
2023/10/08 09:39:23;;;;;;;8.02;2.28;;;;;;;;;;6225022;22;20090;-86
2023/10/08 09:41:58;;;;;;;4.43;2.13;;;;;;;;;;6250911;22;20094;-86
2023/10/08 09:44:25;;;;;;;6.82;2.70;;;;;;;;;;6251354;22;20080;-86
2023/10/08 09:47:05;;;;;;;6.65;2.17;;;;;;;;;;6251069;22;20077;-87
2023/10/08 09:49:32;;;;;;;7.25;2.38;;;;;;;;;;6225058;22;20011;-87
2023/10/08 09:52:06;;;;;;;7.45;2.35;;;;;;;;;;6251314;22;20073;-86
2023/10/08 09:54:39;;;;;;;4.60;2.00;;;;;;;;;;6250375;22;20051;-86
2023/10/08 09:57:06;;;;;;;7.75;2.20;;;;;;;;;;6225966;22;20047;-86
2023/10/08 09:59:34;;;;;;;8.10;2.97;;;;;;;;;;6253811;22;20297;-86
2023/10/08 10:02:00;;;;;;;7.40;2.58;;;;;;;;;;6230521;22;20012;-86
2023/10/08 10:04:31;;;;;;;7.15;2.40;;;;;;;;;;6228245;22;20352;-85
2023/10/08 10:07:16;;;;;;;6.57;2.50;;;;;;;;;;6227146;22;20012;-86
2023/10/08 10:09:49;;;;;;;11.63;2.75;;;;;;;;;;6255006;22;20016;-87
2023/10/08 10:12:25;;;;;;;7.43;2.17;;;;;;;;;;6227597;22;20022;-86
2023/10/08 10:14:55;;;;;;;8.25;2.88;;;;;;;;;;6227845;22;20072;-90
2023/10/08 10:17:25;;;;;;;11.15;2.85;;;;;;;;;;6229384;22;20023;-88
2023/10/08 10:20:00;;;;;;;4.93;2.08;;;;;;;;;;6232282;22;20024;-88
2023/10/08 10:22:32;;;;;;;8.15;2.58;;;;;;;;;;6230920;22;20428;-87
2023/10/08 10:25:00;;;;;;;6.57;2.65;;;;;;;;;;6231138;22;20023;-90
2023/10/08 10:27:26;;;;;;;11.38;3.00;;;;;;;;;;6227692;22;20348;-87
2023/10/08 10:30:04;;;;;;;5.18;1.98;;;;;;;;;;6226933;22;20020;-89
2023/10/08 10:32:30;;;;;;;10.20;2.50;;;;;;;;;;6228959;22;20027;-89
2023/10/08 10:34:58;;;;;;;9.43;2.53;;;;;;;;;;6229081;22;20035;-89
2023/10/08 10:37:40;;;;;;;6.10;2.50;;;;;;;;;;6228077;22;20035;-89
2023/10/08 10:40:11;;;;;;;7.10;2.70;;;;;;;;;;6227503;22;20061;-87
2023/10/08 10:42:42;;;;;;;6.13;2.15;;;;;;;;;;6226397;22;20021;-88
2023/10/08 10:48:21;;;;;;;7.97;2.53;;;;;;;;;;6251597;22;20023;-88
2023/10/08 10:51:09;;;;;;;6.30;2.28;;;;;;;;;;6226423;22;20015;-88
2023/10/08 10:53:55;;;;;;;8.43;2.42;;;;;;;;;;6251487;22;20043;-89
2023/10/08 10:56:40;;;;;;;7.07;1.90;;;;;;;;;;6253266;22;20348;-89
2023/10/08 10:59:18;;;;;;;7.60;2.10;;;;;;;;;;6232231;22;20008;-91
2023/10/08 11:01:52;;;;;;;9.10;2.55;;;;;;;;;;6230700;22;20054;-90
2023/10/08 11:04:19;;;;;;;9.30;2.45;;;;;;;;;;6229505;22;20314;-90
2023/10/08 11:06:47;;;;;;;4.03;1.90;;;;;;;;;;6227813;22;20023;-89
2023/10/08 11:09:27;;;;;;;8.75;2.42;;;;;;;;;;6226018;22;20018;-90
2023/10/08 11:12:01;;;;;;;7.35;2.22;;;;;;;;;;6254904;22;20320;-89
2023/10/08 11:14:28;;;;;;;4.93;2.05;;;;;;;;;;6226616;22;20062;-89
2023/10/08 11:16:54;;;;;;;7.80;2.03;;;;;;;;;;6226436;22;20042;-90
2023/10/08 11:19:20;;;;;;;6.30;2.20;;;;;;;;;;6225701;22;20020;-89
2023/10/08 11:21:56;;;;;;;5.47;2.33;;;;;;;;;;6227812;22;20096;-89
2023/10/08 11:24:29;;;;;;;10.65;2.05;;;;;;;;;;6226993;22;20454;-89
2023/10/08 11:27:17;;;;;;;6.30;2.15;;;;;;;;;;6228190;22;20020;-88
2023/10/08 11:29:46;;;;;;;4.72;1.85;;;;;;;;;;6227132;22;20026;-89
2023/10/08 11:32:12;;;;;;;8.55;2.42;;;;;;;;;;6226350;22;20077;-89
2023/10/08 11:34:41;;;;;;;8.70;2.08;;;;;;;;;;6226416;22;20020;-88
2023/10/08 11:37:25;;;;;;;5.28;2.58;;;;;;;;;;6225828;22;20016;-88
2023/10/08 11:39:53;;;;;;;5.03;2.00;;;;;;;;;;6225865;22;20015;-88
2023/10/08 11:45:08;;;;;;;6.30;2.03;;;;;;;;;;6252210;22;20015;-88
2023/10/08 11:47:35;;;;;;;7.22;2.53;;;;;;;;;;6227266;22;20015;-88
2023/10/08 11:50:11;;;;;;;7.70;2.13;;;;;;;;;;6226164;22;20045;-88
2023/10/08 11:52:43;;;;;;;;;;;;;;;;;;6226963;22;20019;-88
2023/10/08 11:55:14;;;;;;;10.77;2.25;;;;;;;;;;6251567;22;19969;-88
2023/10/08 11:57:45;;;;;;;4.95;2.17;;;;;;;;;;6224628;22;20016;-88
2023/10/08 12:00:45;;;;;;;7.32;2.05;;;;;;;;;;6249518;22;20043;-89
2023/10/08 12:03:05;;;;;;;6.28;1.98;;;;;;;;;;6244772;22;20031;-88
2023/10/08 12:05:32;;;;;;;6.40;1.90;;;;;;;;;;6249462;22;20356;-88
2023/10/08 12:07:58;;;;;;;4.85;2.33;;;;;;;;;;6224123;22;20020;-89
2023/10/08 12:10:24;;;;;;;4.63;2.13;;;;;;;;;;6225438;22;20087;-88
2023/10/08 12:12:59;;;;;;;4.72;2.03;;;;;;;;;;6224476;22;20019;-88
2023/10/08 12:15:38;;;;;;;6.05;2.13;;;;;;;;;;6249582;22;20012;-89
2023/10/08 12:20:49;;;;;;;6.97;2.38;;;;;;;;;;6251301;22;20016;-89
2023/10/08 12:23:29;;;;;;;6.35;2.35;;;;;;;;;;6227037;22;20514;-88
2023/10/08 12:25:59;;;;;;;6.43;2.70;;;;;;;;;;6225687;22;20016;-88
2023/10/08 12:28:27;;;;;;;9.25;2.35;;;;;;;;;;6250923;22;20065;-88
2023/10/08 12:30:53;;;;;;;8.10;2.00;;;;;;;;;;6226388;22;20065;-88
2023/10/08 12:33:28;;;;;;;8.85;2.33;;;;;;;;;;6226400;22;20023;-88
2023/10/08 12:35:55;;;;;;;6.33;1.90;;;;;;;;;;6225514;22;20012;-88
2023/10/08 12:38:27;;;;;;;6.70;1.92;;;;;;;;;;6226092;22;20168;-88
2023/10/08 12:40:54;;;;;;;7.45;2.10;;;;;;;;;;6251233;22;20336;-87
2023/10/08 12:43:27;;;;;;;9.43;2.53;;;;;;;;;;6250995;22;20016;-87
2023/10/08 12:45:53;;;;;;;6.53;2.35;;;;;;;;;;6226458;22;20019;-88
2023/10/08 12:48:24;;;;;;;8.85;2.10;;;;;;;;;;6228949;22;20015;-88
2023/10/08 12:50:53;;;;;;;7.97;2.10;;;;;;;;;;6279643;22;20026;-89
2023/10/08 12:53:26;;;;;;;6.03;2.35;;;;;;;;;;6227400;22;20019;-87
2023/10/08 12:55:53;;;;;;;10.55;2.47;;;;;;;;;;6228333;22;20027;-89
2023/10/08 12:58:25;;;;;;;4.38;2.45;;;;;;;;;;6226687;22;20012;-89
2023/10/08 13:00:57;;;;;;;7.05;1.98;;;;;;;;;;6228422;22;20623;-90
2023/10/08 13:03:24;;;;;;;6.55;2.35;;;;;;;;;;6230127;22;20016;-90
2023/10/08 13:05:53;;;;;;;7.68;1.90;;;;;;;;;;6225887;22;20034;-88
2023/10/08 13:08:20;;;;;;;5.30;1.88;;;;;;;;;;6225979;22;20016;-89
2023/10/08 13:10:47;;;;;;;4.78;2.33;;;;;;;;;;6226853;22;20070;-88
2023/10/08 13:13:13;;;;;;;6.10;2.22;;;;;;;;;;6226037;22;20012;-89
2023/10/08 13:15:42;;;;;;;7.88;3.35;;;;;;;;;;6225864;22;20011;-89
2023/10/08 13:18:09;;;;;;;5.72;2.30;;;;;;;;;;6226360;22;20452;-89
2023/10/08 13:20:42;;;;;;;3.88;2.20;;;;;;;;;;6227239;22;20015;-90
2023/10/08 13:23:14;;;;;;;5.85;1.90;;;;;;;;;;6230213;22;20137;-88
2023/10/08 13:25:40;;;;;;;7.13;2.45;;;;;;;;;;6235345;22;20023;-89
2023/10/08 13:28:22;;;;;;;;;;;;;;;;;;;;;
2023/10/08 13:31:06;;;;;;;;;;;;;;;;;;;;;
2023/10/08 13:33:48;;;;;;;5.72;2.53;;;;;;;;;;6251990;22;20436;-89
2023/10/08 13:36:15;;;;;;;11.15;2.63;;;;;;;;;;6225567;22;20015;-88
2023/10/08 13:38:41;;;;;;;5.63;2.10;;;;;;;;;;6225647;22;20350;-88
2023/10/08 13:41:17;;;;;;;5.97;1.90;;;;;;;;;;6227242;22;20043;-88
2023/10/08 13:44:01;;;;;;;5.45;2.22;;;;;;;;;;6226305;22;20313;-89
2023/10/08 13:46:31;;;;;;;5.40;2.08;;;;;;;;;;6233430;22;20142;-89
2023/10/08 13:48:57;;;;;;;7.25;2.42;;;;;;;;;;6233022;22;20028;-89
2023/10/08 13:51:25;;;;;;;7.63;2.08;;;;;;;;;;6233647;22;20051;-89
2023/10/08 13:53:59;;;;;;;9.73;2.42;;;;;;;;;;6236767;22;20027;-90
2023/10/08 13:56:30;;;;;;;7.72;2.40;;;;;;;;;;6228969;22;20138;-89
2023/10/08 14:01:55;;;;;;;8.10;2.67;;;;;;;;;;6170225;22;20464;-90
2023/10/08 14:04:30;;;;;;;6.25;2.38;;;;;;;;;;6225994;22;20073;-89
2023/10/08 14:06:58;;;;;;;5.40;2.28;;;;;;;;;;6226731;22;20411;-89
2023/10/08 14:09:37;;;;;;;7.22;2.58;;;;;;;;;;6225735;22;20055;-87
2023/10/08 14:12:06;;;;;;;11.38;3.20;;;;;;;;;;6221682;22;20050;-88
2023/10/08 14:14:34;;;;;;;6.43;2.13;;;;;;;;;;6224976;22;20397;-87
2023/10/08 14:17:05;;;;;;;6.45;2.05;;;;;;;;;;6226423;22;20027;-89
2023/10/08 14:20:12;;;;;;;7.00;2.13;;;;;;;;;;6227694;22;20077;-91
2023/10/08 14:23:05;;;;;;;6.63;1.90;;;;;;;;;;6228243;22;20019;-90
2023/10/08 14:25:45;;;;;;;7.35;2.55;;;;;;;;;;6224448;22;20042;-88
2023/10/08 14:28:30;;;;;;;5.72;2.22;;;;;;;;;;6225700;22;20077;-89
2023/10/08 14:31:07;;;;;;;5.90;2.25;;;;;;;;;;6225174;22;20077;-89
2023/10/08 14:33:41;;;;;;;4.78;2.53;;;;;;;;;;6225219;22;20051;-89
2023/10/08 14:44:48;;;;;;;4.47;2.13;;;;;;;;;;6253141;22;20058;-91
2023/10/08 14:48:22;;;;;;;8.60;2.50;;;;;;;;;;6222434;22;20055;-90
2023/10/08 14:50:38;;;;;;;5.28;2.20;;;;;;;;;;6237438;22;20154;-89
2023/10/08 14:53:13;;;;;;;6.47;2.72;;;;;;;;;;6227362;22;20022;-90
2023/10/08 14:59:21;;;;;;;7.65;2.45;;;;;;;;;;6278891;22;20023;-90
2023/10/08 15:01:52;;;;;;;6.32;2.00;;;;;;;;;;6221271;22;20012;-90
2023/10/08 15:05:24;;;;;;;7.07;2.50;;;;;;;;;;6267236;22;20064;-90
2023/10/08 15:07:53;;;;;;;9.27;2.92;;;;;;;;;;6177999;22;20030;-89
2023/10/08 15:10:25;;;;;;;5.05;2.33;;;;;;;;;;6228201;22;20094;-90
2023/10/08 15:12:52;;;;;;;10.60;2.67;;;;;;;;;;6229804;22;20016;-89
2023/10/08 15:15:24;;;;;;;5.97;2.20;;;;;;;;;;6228922;22;20015;-90
2023/10/08 15:17:58;;;;;;;6.35;2.10;;;;;;;;;;6229906;22;20012;-91
2023/10/08 15:20:25;;;;;;;6.97;2.33;;;;;;;;;;6237271;22;20015;-90
2023/10/08 15:23:03;;;;;;;7.97;2.35;;;;;;;;;;6234763;22;20015;-90
2023/10/08 15:25:52;;;;;;;8.60;2.60;;;;;;;;;;6228480;22;20023;-91
2023/10/08 15:28:20;;;;;;;7.22;2.53;;;;;;;;;;6253806;22;20020;-90
2023/10/08 15:30:52;;;;;;;8.70;2.38;;;;;;;;;;6227093;22;20077;-90
2023/10/08 15:33:18;;;;;;;6.75;2.63;;;;;;;;;;6226948;22;20016;-90
2023/10/08 15:35:50;;;;;;;6.13;2.05;;;;;;;;;;6225618;22;20030;-90
2023/10/08 15:38:25;;;;;;;6.82;2.08;;;;;;;;;;6225196;22;20042;-91
2023/10/08 15:40:59;;;;;;;10.35;2.50;;;;;;;;;;6226651;22;20101;-91
2023/10/08 15:43:41;;;;;;;9.77;2.65;;;;;;;;;;6218791;22;20106;-89
2023/10/08 15:46:13;;;;;;;7.90;2.38;;;;;;;;;;6223925;22;20020;-89
2023/10/08 15:48:40;;;;;;;5.90;2.13;;;;;;;;;;6225552;22;20020;-89
2023/10/08 15:51:06;;;;;;;7.53;2.20;;;;;;;;;;6223926;22;20320;-89
2023/10/08 15:53:34;;;;;;;7.25;2.20;;;;;;;;;;6223766;22;20015;-90
2023/10/08 15:56:03;;;;;;;8.55;2.15;;;;;;;;;;6224176;22;20020;-90
2023/10/08 15:58:31;;;;;;;6.80;2.38;;;;;;;;;;6223841;22;20093;-90
2023/10/08 16:00:57;;;;;;;5.22;2.03;;;;;;;;;;6223820;22;20022;-90
2023/10/08 16:03:37;;;;;;;4.60;2.20;;;;;;;;;;6225216;22;20023;-90
2023/10/08 16:07:14;;;;;;;7.60;2.53;;;;;;;;;;6213494;22;20077;-90
2023/10/08 16:09:53;;;;;;;4.38;2.10;;;;;;;;;;6249284;22;20020;-90
2023/10/08 16:13:00;;;;;;;;;;;;;;;;;;;;;
2023/10/08 21:56:58;;;;;;;11.20;4.20;;;;;;;;;;6269714;22;20585;-87
2023/10/08 21:59:25;;;;;;;8.43;4.63;;;;;;;;;;6224518;22;20027;-86
2023/10/08 22:01:51;;;;;;;8.00;4.22;;;;;;;;;;6249600;22;20015;-86
2023/10/08 22:04:17;;;;;;;10.48;4.90;;;;;;;;;;6249127;22;20073;-86
2023/10/08 22:06:43;;;;;;;9.23;4.68;;;;;;;;;;6249821;22;20091;-86
2023/10/08 22:09:16;;;;;;;8.32;3.97;;;;;;;;;;6224273;22;20020;-86
2023/10/08 22:11:43;;;;;;;8.15;4.38;;;;;;;;;;6224321;22;20016;-86
2023/10/08 22:14:13;;;;;;;7.80;4.68;;;;;;;;;;6224754;22;20016;-85
2023/10/08 22:16:42;;;;;;;7.22;4.72;;;;;;;;;;6224107;22;20015;-86
2023/10/08 22:19:13;;;;;;;9.82;4.40;;;;;;;;;;6249217;22;20011;-86
2023/10/08 22:21:41;;;;;;;7.63;4.28;;;;;;;;;;6224107;22;20022;-86
2023/10/08 22:24:18;;;;;;;9.05;4.22;;;;;;;;;;6249403;22;20047;-86
2023/10/08 22:26:49;;;;;;;8.85;4.35;;;;;;;;;;6249354;22;20082;-86
2023/10/08 22:29:16;;;;;;;9.27;4.28;;;;;;;;;;6249223;22;20019;-87
2023/10/08 22:31:49;;;;;;;8.75;4.40;;;;;;;;;;6248930;22;20019;-86